Terminal Aerodrome Forecast
Issued by NWS

Home | Current Version | Previous Version | Text Only | Print | Product List | Glossary On
Versions: 1 2 3 4 5 6 7 8 9 10 11 12 13 14 15 16 17 18
209
FTUS46 KSTO 261130
TAFRBL
TAF
KRBL 261130Z 2612/2712 VRB04KT P6SM OVC050
      TEMPO 2616/2620 BKN025
     FM262000 16014G21KT P6SM -SHRA SCT030 OVC070
     FM270200 16008KT P6SM VCSH OVC025=

USA.gov is the U.S. government's official web portal to all federal, state and local government web resources and services.